createdAt,value
2023-03-29T00:00:38.705Z,0.5020
2023-03-29T00:01:40.139Z,0.4998
2023-03-29T00:02:53.386Z,0.4954
2023-03-29T00:03:43.066Z,0.4994
2023-03-29T00:04:44.436Z,0.4941
2023-03-29T00:05:45.945Z,0.4942
2023-03-29T00:06:47.284Z,0.4951
2023-03-29T00:07:48.729Z,0.5031
2023-03-29T00:08:50.167Z,0.5106
2023-03-29T00:09:51.563Z,0.5141
2023-03-29T00:10:52.998Z,0.5206
2023-03-29T00:11:54.422Z,0.5156
2023-03-29T00:12:55.848Z,0.5109
2023-03-29T00:13:57.298Z,0.5165
2023-03-29T00:14:58.722Z,0.5093
2023-03-29T00:16:00.145Z,0.5135
2023-03-29T00:17:01.613Z,0.5160
2023-03-29T00:18:02.999Z,0.5070
2023-03-29T00:19:04.443Z,0.5112
2023-03-29T00:20:05.854Z,0.5181
2023-03-29T00:21:07.302Z,0.5224
2023-03-29T00:22:08.741Z,0.5064
2023-03-29T00:23:10.171Z,0.5080
2023-03-29T00:24:11.560Z,0.4949
2023-03-29T00:25:13.074Z,0.4962
2023-03-29T00:26:14.489Z,0.4969
2023-03-29T00:27:15.889Z,0.4993
2023-03-29T00:28:17.336Z,0.4978
2023-03-29T00:29:18.801Z,0.4992
2023-03-29T00:30:20.159Z,0.5033
2023-03-29T00:31:21.646Z,0.5033
2023-03-29T00:32:23.051Z,0.5053
2023-03-29T00:33:24.475Z,0.5138
2023-03-29T00:34:25.899Z,0.5118
2023-03-29T00:35:27.360Z,0.5141
2023-03-29T00:36:28.771Z,0.5059
2023-03-29T00:37:30.217Z,0.5027
2023-03-29T00:38:31.773Z,0.5022
2023-03-29T00:39:33.032Z,0.5054
2023-03-29T00:40:34.466Z,0.5174
2023-03-29T00:41:35.914Z,0.5155
2023-03-29T00:42:37.363Z,0.5115
2023-03-29T00:43:38.749Z,0.5193
2023-03-29T00:44:40.171Z,0.5273
2023-03-29T00:45:41.588Z,0.5345
2023-03-29T00:46:43.117Z,0.5365
2023-03-29T00:47:44.542Z,0.5448
2023-03-29T00:48:45.922Z,0.5444
2023-03-29T00:49:47.300Z,0.5364
2023-03-29T00:50:48.772Z,0.5304
2023-03-29T00:51:50.177Z,0.5218
2023-03-29T00:52:51.602Z,0.5170
2023-03-29T00:53:53.032Z,0.5209
2023-03-29T00:54:54.457Z,0.5182
2023-03-29T00:55:55.886Z,0.5245
2023-03-29T00:56:57.430Z,0.5391
2023-03-29T00:57:58.742Z,0.5457
2023-03-29T00:59:00.172Z,0.5579
2023-03-29T01:00:01.609Z,0.5536
2023-03-29T01:01:03.316Z,0.5504
2023-03-29T01:02:04.503Z,0.5598
2023-03-29T01:03:05.961Z,0.5583
2023-03-29T01:04:07.312Z,0.5508
2023-03-29T01:05:08.719Z,0.5403
2023-03-29T01:06:10.126Z,0.5338
2023-03-29T01:07:11.632Z,0.5253
2023-03-29T01:08:12.992Z,0.5209
2023-03-29T01:09:14.428Z,0.5312
2023-03-29T01:10:15.844Z,0.5501
2023-03-29T01:11:17.524Z,0.5534
2023-03-29T01:12:18.704Z,0.5607
2023-03-29T01:13:20.110Z,0.5626
2023-03-29T01:14:21.542Z,0.5564
2023-03-29T01:15:23.020Z,0.5465
2023-03-29T01:16:24.420Z,0.5506
2023-03-29T01:17:25.919Z,0.5494
2023-03-29T01:18:27.269Z,0.5459
2023-03-29T01:19:28.726Z,0.5463
2023-03-29T01:20:30.133Z,0.5396
2023-03-29T01:21:31.610Z,0.5360
2023-03-29T01:22:33.008Z,0.5397
2023-03-29T01:23:34.431Z,0.5247
2023-03-29T01:24:35.865Z,0.5173
2023-03-29T01:25:37.293Z,0.5184
2023-03-29T01:26:38.722Z,0.5276
2023-03-29T01:27:40.160Z,0.5238
2023-03-29T01:28:41.547Z,0.5168
2023-03-29T01:29:42.992Z,0.5130
2023-03-29T01:30:44.423Z,0.5073
2023-03-29T01:31:45.976Z,0.4971
2023-03-29T01:32:47.293Z,0.5010
2023-03-29T01:33:48.738Z,0.4930
2023-03-29T01:34:50.098Z,0.4965
2023-03-29T01:35:51.589Z,0.5122
2023-03-29T01:36:52.951Z,0.5110
2023-03-29T01:37:54.450Z,0.5140
2023-03-29T01:38:55.817Z,0.5048
2023-03-29T01:39:57.254Z,0.5043
2023-03-29T01:40:58.663Z,0.5070
2023-03-29T01:42:00.102Z,0.5078
2023-03-29T01:43:01.560Z,0.5142
2023-03-29T01:44:03.011Z,0.5155
2023-03-29T01:45:04.384Z,0.5094
2023-03-29T01:46:05.830Z,0.5013
2023-03-29T01:47:07.270Z,0.5023
2023-03-29T01:48:08.691Z,0.5069
2023-03-29T01:49:10.087Z,0.5077
2023-03-29T01:50:11.550Z,0.5006
2023-03-29T01:51:12.947Z,0.4905
2023-03-29T01:52:14.391Z,0.4876
2023-03-29T01:53:15.824Z,0.4879
2023-03-29T01:54:17.244Z,0.4898
2023-03-29T01:55:18.659Z,0.4974
2023-03-29T01:56:20.101Z,0.5090
2023-03-29T01:57:21.536Z,0.5196
2023-03-29T01:58:22.946Z,0.5147
2023-03-29T01:59:24.341Z,0.5198
2023-03-29T02:00:25.796Z,0.5298
2023-03-29T02:01:27.248Z,0.5341
2023-03-29T02:02:28.754Z,0.5369
2023-03-29T02:03:30.140Z,0.5312
2023-03-29T02:04:31.492Z,0.5263
2023-03-29T02:05:32.922Z,0.5236
2023-03-29T02:06:34.445Z,0.5260
2023-03-29T02:07:35.761Z,0.5352
2023-03-29T02:08:37.229Z,0.5422
2023-03-29T02:09:38.630Z,0.5296
2023-03-29T02:10:40.080Z,0.5216
2023-03-29T02:11:41.466Z,0.5209
2023-03-29T02:12:42.929Z,0.5149
2023-03-29T02:13:44.441Z,0.5301
2023-03-29T02:14:45.867Z,0.5330
2023-03-29T02:15:47.386Z,0.5249
2023-03-29T02:16:48.702Z,0.5236
2023-03-29T02:17:50.174Z,0.5242
2023-03-29T02:18:51.543Z,0.5275
2023-03-29T02:19:52.984Z,0.5359
2023-03-29T02:20:54.398Z,0.5474
2023-03-29T02:21:55.813Z,0.5414
2023-03-29T02:22:57.278Z,0.5389
2023-03-29T02:23:58.676Z,0.5276
2023-03-29T02:25:00.132Z,0.5266
2023-03-29T02:26:01.521Z,0.5242
2023-03-29T02:27:02.949Z,0.5293
2023-03-29T02:28:04.384Z,0.5255
2023-03-29T02:29:05.806Z,0.5299
2023-03-29T02:30:07.238Z,0.5272
2023-03-29T02:31:08.687Z,0.5326
2023-03-29T02:32:10.073Z,0.5427
2023-03-29T02:33:11.625Z,0.5440
2023-03-29T02:34:12.977Z,0.5419
2023-03-29T02:35:14.339Z,0.5441
2023-03-29T02:36:15.779Z,0.5469
2023-03-29T02:37:17.193Z,0.5377
2023-03-29T02:38:18.660Z,0.5403
2023-03-29T02:39:20.049Z,0.5371
2023-03-29T02:40:21.490Z,0.5220
2023-03-29T02:41:22.893Z,0.5239
2023-03-29T02:42:24.318Z,0.5277
2023-03-29T02:43:26.139Z,0.5299
2023-03-29T02:44:27.160Z,0.5351
2023-03-29T02:45:28.618Z,0.5263
2023-03-29T02:46:30.055Z,0.5337
2023-03-29T02:47:31.506Z,0.5353
2023-03-29T02:48:32.945Z,0.5288
2023-03-29T02:49:34.309Z,0.5280
2023-03-29T02:50:35.733Z,0.5293
2023-03-29T02:51:37.160Z,0.5261
2023-03-29T02:52:38.590Z,0.5234
2023-03-29T02:53:40.052Z,0.5278
2023-03-29T02:54:41.437Z,0.5367
2023-03-29T02:55:42.964Z,0.5311
2023-03-29T02:56:44.334Z,0.5271
2023-03-29T02:57:45.755Z,0.5241
2023-03-29T02:58:47.183Z,0.5210
2023-03-29T02:59:48.604Z,0.5190
2023-03-29T03:00:50.005Z,0.5245
2023-03-29T03:01:51.512Z,0.5251
2023-03-29T03:02:52.965Z,0.5201
2023-03-29T03:03:54.354Z,0.5187
2023-03-29T03:04:55.757Z,0.5151
2023-03-29T03:05:57.161Z,0.5105
2023-03-29T03:06:58.576Z,0.5065
2023-03-29T03:08:00.013Z,0.5061
2023-03-29T03:09:02.022Z,0.5064
2023-03-29T03:10:02.887Z,0.5047
2023-03-29T03:11:04.507Z,0.5063
2023-03-29T03:12:05.734Z,0.5104
2023-03-29T03:13:07.168Z,0.5111
2023-03-29T03:14:08.606Z,0.5107
2023-03-29T03:15:10.024Z,0.5095
2023-03-29T03:16:11.456Z,0.5104
2023-03-29T03:17:12.859Z,0.5097
2023-03-29T03:18:14.294Z,0.5086
2023-03-29T03:19:15.740Z,0.5058
2023-03-29T03:20:17.147Z,0.5086
2023-03-29T03:21:18.589Z,0.5138
2023-03-29T03:22:20.006Z,0.5150
2023-03-29T03:23:21.489Z,0.5202
2023-03-29T03:24:22.860Z,0.5238
2023-03-29T03:25:24.259Z,0.5219
2023-03-29T03:26:25.692Z,0.5200
2023-03-29T03:27:27.147Z,0.5114
2023-03-29T03:28:28.653Z,0.5171
2023-03-29T03:29:30.006Z,0.5167
2023-03-29T03:30:31.464Z,0.5178
2023-03-29T03:31:32.928Z,0.5192
2023-03-29T03:32:34.327Z,0.5143
2023-03-29T03:33:35.726Z,0.5205
2023-03-29T03:34:37.148Z,0.5250
2023-03-29T03:35:38.589Z,0.5289
2023-03-29T03:36:39.984Z,0.5249
2023-03-29T03:37:41.408Z,0.5256
2023-03-29T03:38:42.869Z,0.5250
2023-03-29T03:39:44.274Z,0.5228
2023-03-29T03:40:45.702Z,0.5307
2023-03-29T03:41:47.155Z,0.5310
2023-03-29T03:42:48.541Z,0.5313
2023-03-29T03:43:49.970Z,0.5319
2023-03-29T03:44:51.427Z,0.5390
2023-03-29T03:45:52.927Z,0.5323
2023-03-29T03:46:54.251Z,0.5362
2023-03-29T03:47:55.675Z,0.5480
2023-03-29T03:48:57.161Z,0.5505
2023-03-29T03:49:58.534Z,0.5456
2023-03-29T03:51:00.052Z,0.5476
2023-03-29T03:52:01.389Z,0.5553
2023-03-29T03:53:02.808Z,0.5591
2023-03-29T03:54:04.292Z,0.5629
2023-03-29T03:55:05.691Z,0.5651
2023-03-29T03:56:07.090Z,0.5621
2023-03-29T03:57:08.528Z,0.5609
2023-03-29T03:58:09.962Z,0.5564
2023-03-29T03:59:11.400Z,0.5668
2023-03-29T04:00:12.804Z,0.5656
2023-03-29T04:01:14.237Z,0.5703
2023-03-29T04:02:15.735Z,0.5737
2023-03-29T04:03:17.263Z,0.5693
2023-03-29T04:04:18.552Z,0.5606
2023-03-29T04:05:20.024Z,0.5674
2023-03-29T04:06:21.363Z,0.5599
2023-03-29T04:07:22.820Z,0.5526
2023-03-29T04:08:24.233Z,0.5559
2023-03-29T04:09:25.696Z,0.5628
2023-03-29T04:10:27.100Z,0.5604
2023-03-29T04:11:28.538Z,0.5605
2023-03-29T04:12:29.981Z,0.5637
2023-03-29T04:13:31.384Z,0.5618
2023-03-29T04:14:32.808Z,0.5603
2023-03-29T04:15:34.304Z,0.5668
2023-03-29T04:16:35.663Z,0.5657
2023-03-29T04:17:37.201Z,0.5669
2023-03-29T04:18:38.593Z,0.5792
2023-03-29T04:19:39.988Z,0.5781
2023-03-29T04:20:41.376Z,0.5812
2023-03-29T04:21:42.823Z,0.5850
2023-03-29T04:22:44.325Z,0.6051
2023-03-29T04:23:45.678Z,0.6017
2023-03-29T04:24:47.100Z,0.6026
2023-03-29T04:25:48.528Z,0.6080
2023-03-29T04:26:49.958Z,0.6011
2023-03-29T04:27:51.389Z,0.6016
2023-03-29T04:28:52.797Z,0.5998
2023-03-29T04:29:54.267Z,0.6024
2023-03-29T04:30:55.658Z,0.6087
2023-03-29T04:31:57.096Z,0.6054
2023-03-29T04:32:58.606Z,0.6153
2023-03-29T04:34:00.514Z,0.6085
2023-03-29T04:35:01.441Z,0.6091
2023-03-29T04:36:02.837Z,0.6041
2023-03-29T04:37:04.220Z,0.5944
2023-03-29T04:38:05.652Z,0.5912
2023-03-29T04:39:07.104Z,0.5829
2023-03-29T04:40:08.540Z,0.5811
2023-03-29T04:41:10.963Z,0.5802
2023-03-29T04:42:11.459Z,0.5868
2023-03-29T04:43:12.804Z,0.5875
2023-03-29T04:44:14.218Z,0.5894
2023-03-29T04:45:15.722Z,0.5919
2023-03-29T04:46:17.148Z,0.5945
2023-03-29T04:47:18.500Z,0.5900
2023-03-29T04:48:19.937Z,0.5875
2023-03-29T04:49:21.802Z,0.5851
2023-03-29T04:50:22.797Z,0.5856
2023-03-29T04:51:24.237Z,0.5877
2023-03-29T04:52:25.662Z,0.5829
2023-03-29T04:53:27.080Z,0.5904
2023-03-29T04:54:28.536Z,0.5978
2023-03-29T04:55:29.925Z,0.5903
2023-03-29T04:56:31.375Z,0.5969
2023-03-29T04:57:32.793Z,0.6002
2023-03-29T04:58:34.230Z,0.5939
2023-03-29T04:59:35.664Z,0.5925
2023-03-29T05:00:37.090Z,0.5939
2023-03-29T05:01:42.738Z,0.5917
2023-03-29T05:02:39.316Z,0.5882
2023-03-29T05:03:41.365Z,0.5752
2023-03-29T05:04:42.873Z,0.5768
2023-03-29T05:05:44.211Z,0.5730
2023-03-29T05:06:45.632Z,0.5810
2023-03-29T05:07:47.083Z,0.5798
2023-03-29T05:08:48.471Z,0.5572
2023-03-29T05:09:49.924Z,0.5429
2023-03-29T05:10:51.325Z,0.5339
2023-03-29T05:11:52.772Z,0.5240
2023-03-29T05:12:54.461Z,0.5222
2023-03-29T05:13:55.633Z,0.5268
2023-03-29T05:14:57.013Z,0.5331
2023-03-29T05:15:58.490Z,0.5378
2023-03-29T05:16:59.905Z,0.5325
2023-03-29T05:18:01.374Z,0.5224
2023-03-29T05:19:02.755Z,0.5186
2023-03-29T05:20:04.182Z,0.5234
2023-03-29T05:21:05.613Z,0.5263
2023-03-29T05:22:07.044Z,0.5260
2023-03-29T05:23:08.426Z,0.5203
2023-03-29T05:24:09.909Z,0.5167
2023-03-29T05:25:11.318Z,0.5150
2023-03-29T05:26:12.729Z,0.5096
2023-03-29T05:27:14.181Z,0.5017
2023-03-29T05:28:15.589Z,0.5043
2023-03-29T05:29:17.017Z,0.5110
2023-03-29T05:30:18.433Z,0.5119
2023-03-29T05:31:19.919Z,0.5136
2023-03-29T05:32:22.097Z,0.5166
2023-03-29T05:33:22.749Z,0.5094
2023-03-29T05:34:24.155Z,0.5117
2023-03-29T05:35:25.545Z,0.5144
2023-03-29T05:36:26.993Z,0.5148
2023-03-29T05:37:28.404Z,0.5153
2023-03-29T05:38:29.829Z,0.5284
2023-03-29T05:39:31.253Z,0.5230
2023-03-29T05:40:32.725Z,0.5313
2023-03-29T05:41:34.116Z,0.5367
2023-03-29T05:42:35.552Z,0.5416
2023-03-29T05:43:37.000Z,0.5428
2023-03-29T05:44:38.454Z,0.5402
2023-03-29T05:45:39.818Z,0.5400
2023-03-29T05:46:41.305Z,0.5383
2023-03-29T05:47:42.847Z,0.5436
2023-03-29T05:48:44.079Z,0.5474
2023-03-29T05:49:45.639Z,0.5485
2023-03-29T05:50:47.040Z,0.5519
2023-03-29T05:51:48.377Z,0.5647
2023-03-29T05:52:49.783Z,0.5656
2023-03-29T05:53:51.215Z,0.5693
2023-03-29T05:54:52.633Z,0.5703
2023-03-29T05:55:54.106Z,0.5648
2023-03-29T05:56:55.534Z,0.5605
2023-03-29T05:57:56.925Z,0.5616
2023-03-29T05:58:58.363Z,0.5709
2023-03-29T05:59:59.818Z,0.5563
2023-03-29T06:01:01.479Z,0.5496
2023-03-29T06:02:02.737Z,0.5498
2023-03-29T06:03:17.651Z,0.5471
2023-03-29T06:04:05.504Z,0.5510
2023-03-29T06:05:06.996Z,0.5537
2023-03-29T06:06:08.343Z,0.5526
2023-03-29T06:07:09.785Z,0.5524
2023-03-29T06:08:11.210Z,0.5444
2023-03-29T06:09:12.628Z,0.5386
2023-03-29T06:10:14.064Z,0.5374
2023-03-29T06:11:15.468Z,0.5370
2023-03-29T06:12:16.931Z,0.5375
2023-03-29T06:13:18.328Z,0.5422
2023-03-29T06:14:19.755Z,0.5449
2023-03-29T06:15:21.313Z,0.5534
2023-03-29T06:16:22.765Z,0.5557
2023-03-29T06:17:24.219Z,0.5475
2023-03-29T06:18:25.565Z,0.5391
2023-03-29T06:19:26.974Z,0.5451
2023-03-29T06:20:28.400Z,0.5593
2023-03-29T06:21:29.829Z,0.5526
2023-03-29T06:22:31.250Z,0.5547
2023-03-29T06:23:32.666Z,0.5492
2023-03-29T06:24:34.087Z,0.5451
2023-03-29T06:25:35.514Z,0.5551
2023-03-29T06:26:36.962Z,0.5635
2023-03-29T06:27:38.377Z,0.5510
2023-03-29T06:28:39.782Z,0.5491
2023-03-29T06:29:41.249Z,0.5362
2023-03-29T06:30:42.642Z,0.5383
2023-03-29T06:31:44.154Z,0.5484
2023-03-29T06:32:45.554Z,0.5550
2023-03-29T06:33:46.965Z,0.5509
2023-03-29T06:34:48.362Z,0.5413
2023-03-29T06:35:49.907Z,0.5336
2023-03-29T06:36:51.202Z,0.5400
2023-03-29T06:37:52.644Z,0.5411
2023-03-29T06:38:54.082Z,0.5340
2023-03-29T06:39:55.505Z,0.5343
2023-03-29T06:40:56.948Z,0.5355
2023-03-29T06:41:58.351Z,0.5318
2023-03-29T06:42:59.762Z,0.5326
2023-03-29T06:44:01.218Z,0.5286
2023-03-29T06:45:02.666Z,0.5189
2023-03-29T06:46:04.138Z,0.5181
2023-03-29T06:47:05.577Z,0.5149
2023-03-29T06:48:06.972Z,0.5093
2023-03-29T06:49:08.350Z,0.5208
2023-03-29T06:50:09.798Z,0.5179
2023-03-29T06:51:11.201Z,0.5113
2023-03-29T06:52:12.665Z,0.5150
2023-03-29T06:53:14.060Z,0.5167
2023-03-29T06:54:15.469Z,0.5193
2023-03-29T06:55:16.878Z,0.5205
2023-03-29T06:56:18.335Z,0.5232
2023-03-29T06:57:19.848Z,0.5314
2023-03-29T06:58:21.175Z,0.5371
2023-03-29T06:59:22.628Z,0.5437
2023-03-29T07:00:24.038Z,0.5356
2023-03-29T07:01:25.486Z,0.5361
2023-03-29T07:02:26.947Z,0.5426
2023-03-29T07:03:28.319Z,0.5540
2023-03-29T07:04:29.831Z,0.5598
2023-03-29T07:05:31.174Z,0.5607
2023-03-29T07:06:32.605Z,0.5668
2023-03-29T07:07:34.028Z,0.5764
2023-03-29T07:08:35.442Z,0.5749
2023-03-29T07:09:36.874Z,0.5602
2023-03-29T07:10:38.357Z,0.5650
2023-03-29T07:11:39.747Z,0.5650
2023-03-29T07:12:41.146Z,0.5542
2023-03-29T07:13:42.807Z,0.5465
2023-03-29T07:14:46.242Z,0.5464
2023-03-29T07:15:45.425Z,0.5416
2023-03-29T07:16:47.104Z,0.5251
2023-03-29T07:17:48.289Z,0.5322
2023-03-29T07:18:49.701Z,0.5321
2023-03-29T07:19:51.109Z,0.5175
2023-03-29T07:20:52.594Z,0.5125
2023-03-29T07:21:54.014Z,0.5094
2023-03-29T07:22:55.405Z,0.5161
2023-03-29T07:23:56.820Z,0.5217
2023-03-29T07:24:58.244Z,0.5353
2023-03-29T07:25:59.649Z,0.5451
2023-03-29T07:27:04.486Z,0.5467
2023-03-29T07:28:02.499Z,0.5503
2023-03-29T07:29:03.925Z,0.5511
2023-03-29T07:30:05.348Z,0.5522
2023-03-29T07:31:06.814Z,0.5504
2023-03-29T07:32:08.290Z,0.5630
2023-03-29T07:33:09.782Z,0.5628
2023-03-29T07:34:11.134Z,0.5617
2023-03-29T07:35:12.529Z,0.5678
2023-03-29T07:36:13.993Z,0.5619
2023-03-29T07:37:15.371Z,0.5613
2023-03-29T07:38:16.828Z,0.5519
2023-03-29T07:39:18.206Z,0.5495
2023-03-29T07:40:19.639Z,0.5620
2023-03-29T07:41:21.050Z,0.5594
2023-03-29T07:42:22.493Z,0.5445
2023-03-29T07:43:23.902Z,0.5443
2023-03-29T07:44:25.333Z,0.5506
2023-03-29T07:45:28.587Z,0.5580
2023-03-29T07:46:28.225Z,0.5634
2023-03-29T07:47:29.649Z,0.5649
2023-03-29T07:48:31.024Z,0.5509
2023-03-29T07:49:32.464Z,0.5546
2023-03-29T07:50:33.877Z,0.5515
2023-03-29T07:51:35.315Z,0.5580
2023-03-29T07:52:36.735Z,0.5595
2023-03-29T07:53:38.174Z,0.5588
2023-03-29T07:54:39.600Z,0.5601
2023-03-29T07:55:41.001Z,0.5620
2023-03-29T07:56:42.449Z,0.5600
2023-03-29T07:57:43.857Z,0.5556
2023-03-29T07:58:45.297Z,0.5531
2023-03-29T07:59:46.723Z,0.5420
2023-03-29T08:00:48.151Z,0.5450
2023-03-29T08:01:49.567Z,0.5505
2023-03-29T08:02:51.025Z,0.5596
2023-03-29T08:03:52.550Z,0.5749
2023-03-29T08:04:54.032Z,0.5924
2023-03-29T08:05:55.283Z,0.5859
2023-03-29T08:06:56.695Z,0.5753
2023-03-29T08:07:58.125Z,0.5749
2023-03-29T08:08:59.554Z,0.5919
2023-03-29T08:10:01.001Z,0.6077
2023-03-29T08:11:02.585Z,0.6148
2023-03-29T08:12:03.822Z,0.6061
2023-03-29T08:13:05.257Z,0.5899
2023-03-29T08:14:06.710Z,0.5945
2023-03-29T08:15:08.194Z,0.5987
2023-03-29T08:16:09.542Z,0.6079
2023-03-29T08:17:11.050Z,0.6049
2023-03-29T08:18:12.470Z,0.6192
2023-03-29T08:19:13.810Z,0.6332
2023-03-29T08:20:15.249Z,0.6323
2023-03-29T08:21:16.665Z,0.6273
2023-03-29T08:22:18.102Z,0.6095
2023-03-29T08:23:19.538Z,0.5973
2023-03-29T08:24:21.174Z,0.5980
2023-03-29T08:25:22.383Z,0.5940
2023-03-29T08:26:23.803Z,0.6027
2023-03-29T08:27:25.214Z,0.6028
2023-03-29T08:28:26.684Z,0.5965
2023-03-29T08:29:28.082Z,0.6111
2023-03-29T08:30:29.519Z,0.6168
2023-03-29T08:31:31.004Z,0.6147
2023-03-29T08:32:32.383Z,0.6083
2023-03-29T08:33:33.809Z,0.6027
2023-03-29T08:34:35.205Z,0.5944
2023-03-29T08:35:36.662Z,0.6022
2023-03-29T08:36:38.060Z,0.6034
2023-03-29T08:37:39.491Z,0.6049
2023-03-29T08:38:40.986Z,0.5995
2023-03-29T08:39:42.359Z,0.5990
2023-03-29T08:40:43.761Z,0.5929
2023-03-29T08:41:45.171Z,0.5894
2023-03-29T08:42:46.596Z,0.5815
2023-03-29T08:43:48.050Z,0.5807
2023-03-29T08:44:49.470Z,0.5784
2023-03-29T08:45:51.236Z,0.5900
2023-03-29T08:46:52.358Z,0.5919
2023-03-29T08:47:53.818Z,0.5916
2023-03-29T08:48:55.197Z,0.5914
2023-03-29T08:49:56.597Z,0.5894
2023-03-29T08:50:58.022Z,0.5914
2023-03-29T08:51:59.451Z,0.5939
2023-03-29T08:53:00.866Z,0.5954
2023-03-29T08:54:02.326Z,0.5939
2023-03-29T08:55:03.732Z,0.5990
2023-03-29T08:56:05.201Z,0.5973
2023-03-29T08:57:06.589Z,0.5913
2023-03-29T08:58:08.004Z,0.5824
2023-03-29T08:59:09.483Z,0.5702
2023-03-29T09:00:10.867Z,0.5670
2023-03-29T09:01:12.344Z,0.5718
2023-03-29T09:02:13.749Z,0.5750
2023-03-29T09:03:15.213Z,0.5822
2023-03-29T09:04:16.605Z,0.5625
2023-03-29T09:05:18.049Z,0.5677
2023-03-29T09:06:19.454Z,0.5678
2023-03-29T09:07:20.889Z,0.5583
2023-03-29T09:08:22.302Z,0.5597
2023-03-29T09:09:23.750Z,0.5690
2023-03-29T09:10:25.183Z,0.5636
2023-03-29T09:11:26.627Z,0.5763
2023-03-29T09:12:28.013Z,0.5838
2023-03-29T09:13:29.535Z,0.5761
2023-03-29T09:14:30.873Z,0.5744
2023-03-29T09:15:32.391Z,0.5823
2023-03-29T09:16:33.764Z,0.5708
2023-03-29T09:17:35.186Z,0.5570
2023-03-29T09:18:36.632Z,0.5716
2023-03-29T09:19:38.030Z,0.5740
2023-03-29T09:20:39.516Z,0.5674
2023-03-29T09:21:40.872Z,0.5768
2023-03-29T09:22:42.313Z,0.5842
2023-03-29T09:23:43.744Z,0.5998
2023-03-29T09:24:45.177Z,0.6137
2023-03-29T09:25:53.554Z,0.6072
2023-03-29T09:26:48.041Z,0.5815
2023-03-29T09:27:49.461Z,0.5918
2023-03-29T09:28:50.896Z,0.5923
2023-03-29T09:29:52.299Z,0.6079
2023-03-29T09:30:53.750Z,0.6046
2023-03-29T09:31:55.153Z,0.6080
2023-03-29T09:32:56.652Z,0.6015
2023-03-29T09:33:57.994Z,0.5895
2023-03-29T09:34:59.444Z,0.5843
2023-03-29T09:36:00.899Z,0.5834
2023-03-29T09:37:02.272Z,0.5824
2023-03-29T09:38:03.702Z,0.5761
2023-03-29T09:39:05.157Z,0.5813
2023-03-29T09:40:06.568Z,0.5845
2023-03-29T09:41:07.997Z,0.5899
2023-03-29T09:42:09.494Z,0.5797
2023-03-29T09:43:10.853Z,0.5675
2023-03-29T09:44:20.773Z,0.5574
2023-03-29T09:45:13.718Z,0.5604
2023-03-29T09:46:15.216Z,0.5719
2023-03-29T09:47:16.547Z,0.5628
2023-03-29T09:48:17.957Z,0.5604
2023-03-29T09:49:19.409Z,0.5612
2023-03-29T09:50:30.960Z,0.5545
2023-03-29T09:51:22.342Z,0.5651
2023-03-29T09:52:23.690Z,0.5648
2023-03-29T09:53:25.126Z,0.5668
2023-03-29T09:54:26.534Z,0.5755
2023-03-29T09:55:27.967Z,0.5866
2023-03-29T09:56:29.400Z,0.5847
2023-03-29T09:57:30.943Z,0.5893
2023-03-29T09:58:32.239Z,0.6000
2023-03-29T09:59:33.684Z,0.5919
2023-03-29T10:00:35.105Z,0.5756
2023-03-29T10:01:36.553Z,0.5666
2023-03-29T10:02:38.036Z,0.5634
2023-03-29T10:03:39.404Z,0.5645
2023-03-29T10:04:40.881Z,0.5659
2023-03-29T10:05:42.245Z,0.5602
2023-03-29T10:06:43.676Z,0.5603
2023-03-29T10:07:45.149Z,0.5618
2023-03-29T10:08:46.522Z,0.5723
2023-03-29T10:09:47.980Z,0.5774
2023-03-29T10:10:49.392Z,0.5731
2023-03-29T10:11:50.875Z,0.5629
2023-03-29T10:12:52.256Z,0.5642
2023-03-29T10:13:53.700Z,0.5650
2023-03-29T10:14:55.193Z,0.5647
2023-03-29T10:15:56.549Z,0.5632
2023-03-29T10:16:58.046Z,0.5612
2023-03-29T10:17:59.607Z,0.5696
2023-03-29T10:19:00.932Z,0.5716
2023-03-29T10:20:04.217Z,0.5728
2023-03-29T10:21:04.146Z,0.5759
2023-03-29T10:22:05.223Z,0.5792
2023-03-29T10:23:06.648Z,0.5702
2023-03-29T10:24:08.071Z,0.5735
2023-03-29T10:25:09.491Z,0.5654
2023-03-29T10:26:10.910Z,0.5595
2023-03-29T10:27:12.325Z,0.5505
2023-03-29T10:28:13.764Z,0.5581
2023-03-29T10:29:15.169Z,0.5562
2023-03-29T10:30:16.626Z,0.5458
2023-03-29T10:31:18.075Z,0.5433
2023-03-29T10:32:19.483Z,0.5501
2023-03-29T10:33:20.930Z,0.5440
2023-03-29T10:34:22.319Z,0.5385
2023-03-29T10:35:23.742Z,0.5298
2023-03-29T10:36:25.173Z,0.5365
2023-03-29T10:37:26.613Z,0.5365
2023-03-29T10:38:28.037Z,0.5412
2023-03-29T10:39:29.446Z,0.5511
2023-03-29T10:40:30.947Z,0.5550
2023-03-29T10:41:32.305Z,0.5652
2023-03-29T10:42:33.754Z,0.5619
2023-03-29T10:43:35.170Z,0.5699
2023-03-29T10:44:36.638Z,0.5618
2023-03-29T10:45:38.043Z,0.5469
2023-03-29T10:46:39.496Z,0.5495
2023-03-29T10:47:40.930Z,0.5428
2023-03-29T10:48:42.309Z,0.5465
2023-03-29T10:49:43.741Z,0.5439
2023-03-29T10:50:45.165Z,0.5476
2023-03-29T10:51:46.593Z,0.5486
2023-03-29T10:52:48.022Z,0.5593
2023-03-29T10:53:49.434Z,0.5571
2023-03-29T10:54:50.891Z,0.5609
2023-03-29T10:55:52.309Z,0.5711
2023-03-29T10:56:53.739Z,0.5737
2023-03-29T10:57:55.182Z,0.5825
2023-03-29T10:58:56.625Z,0.5725
2023-03-29T10:59:58.042Z,0.5689
2023-03-29T11:00:59.491Z,0.5677
2023-03-29T11:02:00.910Z,0.5518
2023-03-29T11:03:02.377Z,0.5501
2023-03-29T11:04:03.873Z,0.5510
2023-03-29T11:05:05.211Z,0.5558
2023-03-29T11:06:06.597Z,0.5523
2023-03-29T11:07:08.062Z,0.5409
2023-03-29T11:08:09.486Z,0.5583
2023-03-29T11:09:10.886Z,0.5665
2023-03-29T11:10:12.369Z,0.5603
2023-03-29T11:11:13.739Z,0.5577
2023-03-29T11:12:16.423Z,0.5617
2023-03-29T11:13:16.588Z,0.5672
2023-03-29T11:14:18.032Z,0.5640
2023-03-29T11:15:19.445Z,0.5555
2023-03-29T11:16:20.998Z,0.5673
2023-03-29T11:17:22.390Z,0.5704
2023-03-29T11:18:23.739Z,0.5726
2023-03-29T11:19:25.177Z,0.5655
2023-03-29T11:20:26.573Z,0.5617
2023-03-29T11:21:28.069Z,0.5570
2023-03-29T11:22:29.431Z,0.5523
2023-03-29T11:23:30.866Z,0.5423
2023-03-29T11:24:32.286Z,0.5314
2023-03-29T11:25:33.709Z,0.5377
2023-03-29T11:26:35.205Z,0.5481
2023-03-29T11:27:36.582Z,0.5504
2023-03-29T11:28:37.988Z,0.5385
2023-03-29T11:29:39.432Z,0.5333
2023-03-29T11:30:40.845Z,0.5384
2023-03-29T11:31:42.344Z,0.5283
2023-03-29T11:32:43.725Z,0.5366
2023-03-29T11:33:45.157Z,0.5386
2023-03-29T11:34:46.530Z,0.5337
2023-03-29T11:35:48.131Z,0.5234
2023-03-29T11:36:49.389Z,0.5182
2023-03-29T11:37:50.825Z,0.5241
2023-03-29T11:38:52.242Z,0.5322
2023-03-29T11:39:53.690Z,0.5389
2023-03-29T11:40:55.094Z,0.5399
2023-03-29T11:41:56.564Z,0.5464
2023-03-29T11:42:57.950Z,0.5466
2023-03-29T11:43:59.375Z,0.5465
2023-03-29T11:45:00.810Z,0.5508
2023-03-29T11:46:02.277Z,0.5643
2023-03-29T11:47:03.741Z,0.5682
2023-03-29T11:48:05.176Z,0.5770
2023-03-29T11:49:06.518Z,0.5829
2023-03-29T11:50:07.945Z,0.5858
2023-03-29T11:51:09.365Z,0.5764
2023-03-29T11:52:10.797Z,0.5676
2023-03-29T11:53:12.241Z,0.5669
2023-03-29T11:54:13.641Z,0.5634
2023-03-29T11:55:15.069Z,0.5628
2023-03-29T11:56:16.491Z,0.5603
2023-03-29T11:57:17.999Z,0.5634
2023-03-29T11:58:19.330Z,0.5595
2023-03-29T11:59:20.747Z,0.5642
2023-03-29T12:00:22.176Z,0.5709
2023-03-29T12:01:23.585Z,0.5751
2023-03-29T12:02:25.221Z,0.5862
2023-03-29T12:03:26.495Z,0.5825
2023-03-29T12:04:27.928Z,0.5720
2023-03-29T12:05:29.296Z,0.5755
2023-03-29T12:06:30.741Z,0.5798
2023-03-29T12:07:32.199Z,0.5845
2023-03-29T12:08:33.590Z,0.5860
2023-03-29T12:09:34.998Z,0.5788
2023-03-29T12:10:36.449Z,0.5827
2023-03-29T12:11:37.857Z,0.5884
2023-03-29T12:12:39.310Z,0.5845
2023-03-29T12:13:40.725Z,0.5823
2023-03-29T12:14:42.169Z,0.5822
2023-03-29T12:15:43.604Z,0.5788
2023-03-29T12:16:45.066Z,0.5837
2023-03-29T12:17:46.497Z,0.5919
2023-03-29T12:18:47.882Z,0.5984
2023-03-29T12:19:49.284Z,0.5990
2023-03-29T12:20:50.730Z,0.6057
2023-03-29T12:21:52.137Z,0.6125
2023-03-29T12:22:53.606Z,0.6196
2023-03-29T12:23:54.993Z,0.6284
2023-03-29T12:24:56.425Z,0.6212
2023-03-29T12:25:57.850Z,0.6309
2023-03-29T12:26:59.295Z,0.6284
2023-03-29T12:28:00.757Z,0.6376
2023-03-29T12:29:02.136Z,0.6389
2023-03-29T12:30:03.584Z,0.6351
2023-03-29T12:31:05.143Z,0.6272
2023-03-29T12:32:06.476Z,0.6347
2023-03-29T12:33:07.881Z,0.6248
2023-03-29T12:34:09.292Z,0.6153
2023-03-29T12:35:10.727Z,0.6135
2023-03-29T12:36:12.180Z,0.6028
2023-03-29T12:37:13.562Z,0.5997
2023-03-29T12:38:14.976Z,0.6025
2023-03-29T12:39:16.445Z,0.5927
2023-03-29T12:40:17.826Z,0.5904
2023-03-29T12:41:19.346Z,0.5980
2023-03-29T12:42:20.715Z,0.6149
2023-03-29T12:43:22.118Z,0.6052
2023-03-29T12:44:23.574Z,0.5946
2023-03-29T12:45:24.962Z,0.6011
2023-03-29T12:46:26.550Z,0.6182